Time;durP1;ratioP1;P1;durP2;ratioP2;P2;SDS_P1;SDS_P2;PMS_P1;PMS_P2;Temp;Humidity;BMP_temperature;BMP_pressure;BME280_temperature;BME280_humidity;BME280_pressure;Samples;Min_cycle;Max_cycle;Signal;HPM_P1;HPM_P2
2023/08/03 00:01:20;;;;;;;12.43;10.43;;;;;;;29.13;51.92;98988.81;5091825;28;20084;-42
2023/08/03 00:03:45;;;;;;;14.77;10.77;;;;;;;29.16;51.88;98988.13;5091936;28;20062;-43
2023/08/03 00:06:11;;;;;;;13.15;9.77;;;;;;;29.10;51.12;98986.72;5091508;28;20039;-46
2023/08/03 00:08:36;;;;;;;13.38;9.85;;;;;;;28.99;51.28;98982.88;5091549;28;20028;-46
2023/08/03 00:11:02;;;;;;;11.00;8.65;;;;;;;28.93;51.13;98989.75;5091759;28;20061;-42
2023/08/03 00:13:27;;;;;;;9.70;8.23;;;;;;;28.83;51.35;98991.00;5091696;28;20027;-43
2023/08/03 00:15:52;;;;;;;12.98;8.50;;;;;;;29.09;50.31;98989.81;5091788;28;20020;-43
2023/08/03 00:18:18;;;;;;;8.25;7.38;;;;;;;28.80;50.89;98994.41;5091480;28;20026;-42
2023/08/03 00:20:45;;;;;;;9.82;7.85;;;;;;;28.90;50.39;98993.97;5091626;28;20048;-44
2023/08/03 00:23:11;;;;;;;8.65;7.25;;;;;;;28.93;50.35;98995.22;5091535;28;20035;-42
2023/08/03 00:25:36;;;;;;;7.90;7.10;;;;;;;28.89;49.46;98997.84;5091125;28;20442;-45
2023/08/03 00:28:02;;;;;;;7.88;7.07;;;;;;;28.83;49.68;98997.28;5091614;28;20031;-44
2023/08/03 00:30:27;;;;;;;8.75;7.18;;;;;;;28.96;49.16;98998.06;5091414;28;20076;-42
2023/08/03 00:32:52;;;;;;;8.13;7.00;;;;;;;28.74;49.21;98990.31;5091422;28;20401;-42
2023/08/03 00:35:18;;;;;;;7.90;7.10;;;;;;;28.85;49.28;98996.94;5091409;28;20106;-43
2023/08/03 00:37:43;;;;;;;8.20;7.30;;;;;;;28.87;48.96;98991.91;5090810;28;20048;-43
2023/08/03 00:40:09;;;;;;;9.18;6.80;;;;;;;28.87;49.35;98991.13;5091122;28;20340;-44
2023/08/03 00:42:35;;;;;;;7.57;6.70;;;;;;;28.74;49.33;98987.59;5091328;28;20030;-42
2023/08/03 00:45:00;;;;;;;8.25;6.53;;;;;;;28.67;48.50;98996.34;5091018;28;20027;-46
2023/08/03 00:47:26;;;;;;;7.75;6.93;;;;;;;28.73;49.08;98989.53;5090897;28;20126;-45
2023/08/03 00:49:51;;;;;;;8.02;6.55;;;;;;;28.84;48.96;98995.31;5091007;28;20122;-43
2023/08/03 00:52:16;;;;;;;9.85;7.20;;;;;;;28.57;49.57;98994.88;5090970;28;20513;-42
2023/08/03 00:54:43;;;;;;;8.85;6.50;;;;;;;28.56;49.57;98990.56;5090733;28;20100;-43
2023/08/03 00:57:08;;;;;;;9.07;6.72;;;;;;;28.71;48.84;98986.34;5091131;28;20051;-42
2023/08/03 00:59:34;;;;;;;7.43;6.72;;;;;;;28.60;49.60;98987.94;5090025;28;20039;-44
2023/08/03 01:02:00;;;;;;;7.07;6.38;;;;;;;28.50;49.30;98983.66;5090594;28;20043;-44
2023/08/03 01:04:25;;;;;;;7.63;6.47;;;;;;;28.51;49.40;98988.00;5090752;28;20264;-43
2023/08/03 01:06:52;;;;;;;7.72;6.20;;;;;;;28.62;49.13;98988.41;5090732;28;20032;-44
2023/08/03 01:09:17;;;;;;;8.10;6.63;;;;;;;28.64;49.40;98984.16;5090734;28;20436;-41
2023/08/03 01:11:43;;;;;;;8.00;6.43;;;;;;;28.62;49.56;98983.72;5090749;28;20464;-45
2023/08/03 01:14:08;;;;;;;8.55;7.03;;;;;;;28.63;49.61;98990.75;5090471;28;20028;-43
2023/08/03 01:16:33;;;;;;;8.45;6.82;;;;;;;28.45;49.83;98986.66;5090488;28;20073;-43
2023/08/03 01:18:59;;;;;;;9.43;6.72;;;;;;;28.28;50.30;98982.97;5090544;28;20081;-45
2023/08/03 01:21:26;;;;;;;8.40;7.15;;;;;;;28.37;50.92;98990.25;5090195;28;20415;-41
2023/08/03 01:23:52;;;;;;;8.15;7.35;;;;;;;28.19;51.91;98993.22;5090404;28;20020;-44
2023/08/03 01:26:18;;;;;;;13.48;7.90;;;;;;;27.87;52.79;98998.38;5090154;28;20494;-43
2023/08/03 01:28:43;;;;;;;10.52;6.88;;;;;;;27.95;52.54;98993.16;5090628;28;20020;-44
2023/08/03 01:31:09;;;;;;;8.55;7.38;;;;;;;28.01;52.61;99008.22;5090122;28;20460;-44
2023/08/03 01:33:34;;;;;;;12.52;7.35;;;;;;;27.97;52.81;98997.16;5090551;28;20057;-46
2023/08/03 01:36:00;;;;;;;13.35;7.65;;;;;;;28.12;52.19;99003.09;5090167;28;20056;-45
2023/08/03 01:38:25;;;;;;;9.32;7.60;;;;;;;27.86;52.95;99006.91;5090327;28;20483;-44
2023/08/03 01:40:51;;;;;;;10.48;7.80;;;;;;;27.76;53.14;99015.50;5090516;28;20026;-45
2023/08/03 01:43:16;;;;;;;10.13;7.07;;;;;;;27.80;53.51;99013.72;5090021;28;20016;-46
2023/08/03 01:45:42;;;;;;;8.55;7.30;;;;;;;27.73;53.89;99014.25;5090277;28;20028;-43
2023/08/03 01:48:07;;;;;;;9.25;7.50;;;;;;;27.80;53.50;99019.19;5090410;28;20080;-43
2023/08/03 01:50:33;;;;;;;12.93;7.47;;;;;;;27.69;53.77;99018.78;5090187;28;20372;-44
2023/08/03 01:52:58;;;;;;;9.95;7.85;;;;;;;27.61;54.19;99020.47;5089792;28;20057;-43
2023/08/03 01:55:23;;;;;;;10.15;7.43;;;;;;;27.70;54.00;99025.84;5089621;28;20024;-44
2023/08/03 01:57:49;;;;;;;9.48;7.93;;;;;;;27.56;54.26;99017.13;5090197;28;20108;-44
2023/08/03 02:00:14;;;;;;;10.75;7.78;;;;;;;27.43;55.14;99027.19;5090276;28;20068;-44
2023/08/03 02:02:40;;;;;;;11.02;7.47;;;;;;;27.55;54.90;99015.53;5090053;28;20016;-45
2023/08/03 02:05:06;;;;;;;9.93;8.10;;;;;;;27.59;54.39;99024.66;5090351;28;20116;-43
2023/08/03 02:07:55;;;;;;;9.90;7.35;;;;;;;27.62;54.57;99022.03;5089894;28;20031;-46
2023/08/03 02:10:24;;;;;;;11.48;8.02;;;;;;;27.64;54.58;99021.72;5070271;28;20040;-43
2023/08/03 02:12:49;;;;;;;12.45;8.10;;;;;;;27.56;54.87;99020.66;5073865;28;20032;-43
2023/08/03 02:15:15;;;;;;;10.40;7.97;;;;;;;27.58;54.82;99021.13;5073357;28;20025;-43
2023/08/03 02:17:42;;;;;;;10.43;7.95;;;;;;;27.67;54.61;99024.56;5073588;28;20020;-44
2023/08/03 02:20:08;;;;;;;12.35;8.30;;;;;;;27.54;54.96;99020.19;5073604;28;20028;-45
2023/08/03 02:22:34;;;;;;;11.38;8.65;;;;;;;27.42;55.28;99018.19;5073532;28;20085;-47
2023/08/03 02:24:59;;;;;;;11.82;8.52;;;;;;;27.59;54.61;99022.72;5077743;28;20130;-44
2023/08/03 02:27:25;;;;;;;14.55;8.45;;;;;;;27.65;54.57;99018.66;5093587;28;20103;-47
2023/08/03 02:29:50;;;;;;;13.48;8.98;;;;;;;27.57;54.62;99025.00;5075172;28;20119;-47
2023/08/03 02:32:16;;;;;;;13.75;9.27;;;;;;;27.62;54.31;99029.44;5093889;28;20038;-47
2023/08/03 02:34:41;;;;;;;12.60;9.30;;;;;;;27.56;54.33;99037.03;5093691;28;20028;-43
2023/08/03 02:37:06;;;;;;;11.18;8.77;;;;;;;27.64;53.96;99030.69;5093484;28;20060;-46
2023/08/03 02:39:32;;;;;;;12.15;8.65;;;;;;;27.64;53.62;99027.19;5093368;28;20024;-45
2023/08/03 02:41:57;;;;;;;11.60;9.20;;;;;;;27.74;53.66;99031.44;5093700;28;20032;-45
2023/08/03 02:44:23;;;;;;;13.48;8.18;;;;;;;27.54;53.71;99036.59;5093208;28;20021;-44
2023/08/03 02:46:49;;;;;;;11.27;8.30;;;;;;;27.65;53.71;99034.25;5093464;28;20038;-47
2023/08/03 02:49:14;;;;;;;10.05;8.07;;;;;;;27.62;53.37;99037.66;5093277;28;20529;-46
2023/08/03 02:51:42;;;;;;;10.20;8.15;;;;;;;28.04;52.09;99045.81;5093310;28;20026;-43
2023/08/03 02:54:07;;;;;;;10.88;8.75;;;;;;;28.49;50.69;99047.75;5093352;28;20617;-47
2023/08/03 02:56:33;;;;;;;13.50;8.43;;;;;;;28.60;50.61;99046.19;5093246;28;20016;-44
2023/08/03 02:58:58;;;;;;;12.32;7.75;;;;;;;28.58;49.84;99048.47;5093110;28;20157;-43
2023/08/03 03:01:24;;;;;;;10.48;7.95;;;;;;;28.61;49.77;99057.94;5092818;28;20107;-45
2023/08/03 03:03:49;;;;;;;10.63;8.40;;;;;;;28.61;49.73;99056.00;5093334;28;20024;-45
2023/08/03 03:06:15;;;;;;;10.70;8.40;;;;;;;28.61;50.06;99049.72;5093290;28;20012;-46
2023/08/03 03:08:40;;;;;;;10.25;8.07;;;;;;;28.56;50.10;99058.97;5093037;28;20482;-46
2023/08/03 03:11:05;;;;;;;10.32;8.40;;;;;;;28.58;50.00;99053.94;5093009;28;20081;-44
2023/08/03 03:13:31;;;;;;;14.20;8.38;;;;;;;28.37;50.79;99053.19;5092870;28;20023;-46
2023/08/03 03:15:56;;;;;;;10.52;8.30;;;;;;;28.21;51.40;99053.03;5092457;28;20387;-42
2023/08/03 03:18:22;;;;;;;12.23;9.05;;;;;;;28.21;51.46;99053.84;5092812;28;20403;-44
2023/08/03 03:20:47;;;;;;;14.35;10.48;;;;;;;28.28;51.42;99053.28;5092871;28;20024;-44
2023/08/03 03:23:12;;;;;;;44.47;32.45;;;;;;;28.32;51.45;99067.09;5091854;28;20024;-44
2023/08/03 03:25:38;;;;;;;22.63;16.70;;;;;;;28.35;51.27;99060.94;5092429;28;20023;-45
2023/08/03 03:28:06;;;;;;;12.13;9.10;;;;;;;28.36;51.04;99062.53;5092491;28;20407;-45
2023/08/03 03:30:32;;;;;;;11.73;8.23;;;;;;;28.34;50.50;99060.16;5092327;28;20058;-44
2023/08/03 03:32:57;;;;;;;10.65;8.63;;;;;;;28.31;50.96;99073.69;5092752;28;20402;-44
2023/08/03 03:35:23;;;;;;;9.77;8.65;;;;;;;28.30;51.15;99066.66;5092228;28;20020;-43
2023/08/03 03:37:48;;;;;;;13.13;9.02;;;;;;;28.25;51.23;99076.66;5092617;28;20392;-47
2023/08/03 03:40:14;;;;;;;11.35;8.73;;;;;;;28.28;50.74;99075.19;5092381;28;20020;-47
2023/08/03 03:42:39;;;;;;;10.50;8.10;;;;;;;28.28;50.96;99075.97;5092215;28;20024;-46
2023/08/03 03:45:06;;;;;;;11.30;8.98;;;;;;;28.15;50.73;99074.34;5092202;28;20024;-43
2023/08/03 03:47:31;;;;;;;14.10;8.52;;;;;;;28.09;51.41;99078.44;5091898;28;20047;-44
2023/08/03 03:49:57;;;;;;;18.30;14.70;;;;;;;28.01;52.04;99076.59;5092057;28;20028;-43
2023/08/03 03:52:22;;;;;;;10.80;8.85;;;;;;;27.96;52.26;99076.78;5091801;28;20484;-42
2023/08/03 03:54:47;;;;;;;25.35;19.83;;;;;;;28.06;51.67;99085.38;5092624;28;20464;-44
2023/08/03 03:57:13;;;;;;;13.57;11.13;;;;;;;28.18;50.33;99084.63;5091962;28;20456;-46
2023/08/03 03:59:38;;;;;;;9.55;8.30;;;;;;;28.29;49.91;99084.97;5090860;28;20024;-45
2023/08/03 04:02:04;;;;;;;11.13;7.57;;;;;;;28.49;49.10;99085.25;5091624;28;20024;-43
2023/08/03 04:04:29;;;;;;;10.68;7.30;;;;;;;28.59;48.86;99087.59;5091176;28;20028;-46
2023/08/03 04:06:55;;;;;;;8.73;7.15;;;;;;;28.84;48.30;99097.44;5090581;28;20032;-45
2023/08/03 04:09:20;;;;;;;9.75;7.22;;;;;;;29.11;47.88;99086.94;5090146;28;20020;-43
2023/08/03 04:11:45;;;;;;;9.13;7.80;;;;;;;29.29;47.05;99081.25;5091212;28;20028;-42
2023/08/03 04:14:11;;;;;;;9.95;7.60;;;;;;;29.19;46.01;99066.88;5089796;28;20028;-43
2023/08/03 04:16:36;;;;;;;9.43;7.00;;;;;;;29.72;45.32;99087.97;5089267;28;20024;-44
2023/08/03 04:19:02;;;;;;;8.40;6.65;;;;;;;30.02;44.62;99089.28;5089507;28;20313;-44
2023/08/03 04:21:27;;;;;;;9.60;7.55;;;;;;;30.25;44.38;99082.44;5089302;28;20111;-45
2023/08/03 04:23:53;;;;;;;32.70;25.38;;;;;;;30.43;44.29;99089.22;5089466;28;20107;-44
2023/08/03 04:26:18;;;;;;;10.57;7.47;;;;;;;30.68;43.58;99075.34;5089114;28;20363;-43
2023/08/03 04:28:44;;;;;;;9.77;6.47;;;;;;;30.49;43.42;99089.75;5090407;28;20035;-45
2023/08/03 04:31:09;;;;;;;8.00;6.72;;;;;;;29.85;45.06;99094.25;5090373;28;20039;-43
2023/08/03 04:33:35;;;;;;;7.82;6.88;;;;;;;29.82;45.29;99098.50;5090670;28;20028;-44
2023/08/03 04:36:00;;;;;;;7.65;6.82;;;;;;;30.02;44.63;99093.97;5090617;28;20546;-44
2023/08/03 04:38:26;;;;;;;7.82;6.70;;;;;;;30.20;44.04;99092.50;5090688;28;20039;-50
2023/08/03 04:40:51;;;;;;;7.35;6.60;;;;;;;30.47;43.66;99097.56;5090791;28;20035;-43
2023/08/03 04:43:16;;;;;;;7.18;6.47;;;;;;;30.67;42.61;99081.97;5090755;28;20098;-44
2023/08/03 04:45:42;;;;;;;7.45;6.10;;;;;;;30.76;42.42;99091.63;5090954;28;20020;-45
2023/08/03 04:48:07;;;;;;;8.55;6.47;;;;;;;30.94;42.21;99091.31;5090649;28;20404;-43
2023/08/03 04:50:33;;;;;;;8.23;6.30;;;;;;;31.09;41.14;99098.72;5090533;28;20043;-44
2023/08/03 04:52:58;;;;;;;7.63;6.25;;;;;;;31.18;41.14;99102.06;5090405;28;20016;-44
2023/08/03 04:55:23;;;;;;;17.42;14.23;;;;;;;31.34;40.86;99109.50;5090394;28;20471;-44
2023/08/03 04:57:49;;;;;;;9.25;7.53;;;;;;;31.48;40.77;99109.03;5090659;28;20403;-47
2023/08/03 05:00:15;;;;;;;7.68;6.72;;;;;;;31.58;40.66;99111.22;5090355;28;20096;-44
2023/08/03 05:02:40;;;;;;;8.82;6.50;;;;;;;31.77;40.30;99108.47;5090610;28;20024;-44
2023/08/03 05:05:06;;;;;;;6.82;6.13;;;;;;;31.96;39.73;99120.66;5090477;28;20024;-43
2023/08/03 05:07:31;;;;;;;8.88;6.38;;;;;;;32.36;39.23;99121.44;5090336;28;20024;-42
2023/08/03 05:09:57;;;;;;;7.95;6.47;;;;;;;32.63;38.59;99125.91;5090410;28;20035;-45
2023/08/03 05:12:22;;;;;;;9.18;6.43;;;;;;;32.89;37.88;99135.41;5090325;28;20153;-51
2023/08/03 05:14:47;;;;;;;7.75;6.13;;;;;;;32.67;38.12;99135.03;5090597;28;20482;-43
2023/08/03 05:17:13;;;;;;;8.98;6.68;;;;;;;32.97;37.87;99134.34;5090469;28;20479;-45
2023/08/03 05:19:38;;;;;;;7.40;6.40;;;;;;;33.19;37.23;99137.47;5090306;28;20027;-45
2023/08/03 05:22:04;;;;;;;8.43;6.28;;;;;;;33.45;36.81;99143.00;5090005;28;20554;-45
2023/08/03 05:24:29;;;;;;;9.32;6.90;;;;;;;33.80;36.38;99143.88;5090007;28;20100;-48
2023/08/03 05:26:55;;;;;;;8.40;6.40;;;;;;;33.93;36.47;99149.94;5089748;28;20055;-45
2023/08/03 05:29:20;;;;;;;10.68;6.70;;;;;;;34.39;35.55;99146.97;5089908;28;20448;-45
2023/08/03 05:31:49;;;;;;;7.18;6.00;;;;;;;34.20;35.82;99145.97;5089739;28;20032;-43
2023/08/03 05:34:15;;;;;;;7.35;6.43;;;;;;;34.09;35.67;99145.81;5089750;28;20445;-45
2023/08/03 05:36:40;;;;;;;6.80;5.80;;;;;;;34.26;35.63;99149.19;5089714;28;20048;-46
2023/08/03 05:39:08;;;;;;;6.65;5.80;;;;;;;34.49;34.93;99151.00;5089409;28;20043;-46
2023/08/03 05:41:34;;;;;;;7.63;6.30;;;;;;;34.80;34.50;99149.75;5089623;28;20047;-44
2023/08/03 05:44:00;;;;;;;6.93;6.05;;;;;;;34.99;34.19;99145.94;5089724;28;20540;-45
2023/08/03 05:46:31;;;;;;;9.15;5.70;;;;;;;35.27;33.86;99142.63;5089203;28;20024;-42
2023/08/03 05:48:56;;;;;;;8.40;5.88;;;;;;;36.24;31.89;99148.69;5090167;28;20067;-46
2023/08/03 05:51:26;;;;;;;6.80;5.80;;;;;;;35.80;32.56;99141.41;5089887;28;20184;-47
2023/08/03 05:53:56;;;;;;;7.60;6.50;;;;;;;35.68;32.99;99141.72;5089867;28;20340;-45
2023/08/03 05:56:23;;;;;;;7.43;6.10;;;;;;;35.66;32.80;99144.06;5089492;28;20428;-48
2023/08/03 05:58:49;;;;;;;8.20;6.00;;;;;;;36.00;31.79;99139.09;5089119;28;20099;-45
2023/08/03 06:01:18;;;;;;;6.95;5.88;;;;;;;36.26;31.16;99149.09;5089765;28;20024;-45
2023/08/03 06:03:44;;;;;;;7.15;5.90;;;;;;;36.40;31.38;99142.78;5089570;28;20024;-43
2023/08/03 06:06:13;;;;;;;6.95;6.10;;;;;;;35.93;31.88;99147.34;5089900;28;20378;-47
2023/08/03 06:08:45;;;;;;;6.93;5.90;;;;;;;36.29;31.15;99137.25;5089625;28;20530;-45
2023/08/03 06:11:10;;;;;;;9.23;6.00;;;;;;;36.06;31.74;99142.28;5089299;28;20518;-44
2023/08/03 06:13:38;;;;;;;8.27;6.28;;;;;;;36.44;31.34;99146.34;5089631;28;20099;-45
2023/08/03 06:16:08;;;;;;;6.93;5.78;;;;;;;36.74;31.12;99142.47;5090315;28;20077;-44
2023/08/03 06:18:46;;;;;;;10.90;7.00;;;;;;;37.46;30.19;99137.69;5089979;28;20024;-45
2023/08/03 06:21:13;;;;;;;11.55;7.00;;;;;;;38.40;29.40;99142.88;5089616;28;20020;-45
2023/08/03 06:23:40;;;;;;;7.05;5.97;;;;;;;37.98;28.86;99134.34;5089729;28;20032;-45
2023/08/03 06:26:13;;;;;;;8.55;6.15;;;;;;;37.74;29.32;99131.28;5089130;28;20107;-45
2023/08/03 06:28:39;;;;;;;7.45;6.38;;;;;;;37.93;28.98;99132.00;5089142;28;20114;-45
2023/08/03 06:31:15;;;;;;;6.93;6.00;;;;;;;38.14;28.94;99123.59;5089566;28;20175;-47
2023/08/03 06:33:42;;;;;;;8.13;6.00;;;;;;;38.29;28.68;99129.88;5089764;28;20080;-45
2023/08/03 06:36:10;;;;;;;7.15;6.22;;;;;;;38.57;28.17;99128.09;5089363;28;20036;-45
2023/08/03 06:38:36;;;;;;;7.13;6.20;;;;;;;38.87;27.41;99126.69;5089263;28;20099;-45
2023/08/03 06:41:02;;;;;;;7.75;6.32;;;;;;;38.74;27.87;99122.84;5089738;28;20107;-45
2023/08/03 06:43:28;;;;;;;7.82;6.03;;;;;;;38.48;28.58;99124.97;5089294;28;20028;-44
2023/08/03 06:45:54;;;;;;;8.68;6.15;;;;;;;38.52;28.20;99131.31;5089239;28;20061;-44
2023/08/03 06:48:19;;;;;;;6.50;5.90;;;;;;;38.71;27.84;99130.00;5089300;28;20031;-45
2023/08/03 06:50:45;;;;;;;7.43;5.90;;;;;;;39.12;27.44;99125.72;5089430;28;20447;-43
2023/08/03 06:53:12;;;;;;;6.88;6.18;;;;;;;39.48;27.09;99126.94;5089066;28;20469;-46
2023/08/03 06:55:37;;;;;;;8.68;6.20;;;;;;;39.82;27.01;99128.91;5089239;28;20484;-46
2023/08/03 06:58:03;;;;;;;7.68;6.22;;;;;;;39.40;27.56;99124.63;5090248;28;20043;-45
2023/08/03 07:00:29;;;;;;;8.52;5.93;;;;;;;39.18;27.19;99135.19;5092679;28;20479;-46
2023/08/03 07:02:54;;;;;;;8.85;6.25;;;;;;;39.41;27.50;99127.00;5092365;28;20177;-48
2023/08/03 07:05:20;;;;;;;6.80;6.13;;;;;;;39.53;26.88;99130.47;5092511;28;20024;-44
2023/08/03 07:07:45;;;;;;;6.70;6.03;;;;;;;39.78;26.92;99130.97;5092705;28;20024;-46
2023/08/03 07:10:11;;;;;;;6.93;6.22;;;;;;;40.01;26.72;99133.09;5092444;28;20499;-45
2023/08/03 07:12:37;;;;;;;10.60;5.97;;;;;;;40.37;25.97;99121.47;5092542;28;20030;-44
2023/08/03 07:15:03;;;;;;;8.27;6.20;;;;;;;40.55;25.56;99129.53;5092812;28;20062;-46
2023/08/03 07:17:29;;;;;;;6.20;5.50;;;;;;;40.31;26.21;99130.69;5092216;28;20430;-43
2023/08/03 07:19:54;;;;;;;6.68;5.95;;;;;;;40.03;26.47;99127.09;5092332;28;20031;-44
2023/08/03 07:22:24;;;;;;;8.85;5.80;;;;;;;39.97;25.99;99126.00;5092726;28;20025;-46
2023/08/03 07:24:50;;;;;;;8.82;6.03;;;;;;;39.85;26.30;99125.31;5092095;28;20505;-46
2023/08/03 07:27:15;;;;;;;6.93;6.10;;;;;;;40.07;25.57;99117.47;5092446;28;20070;-46
2023/08/03 07:29:42;;;;;;;6.20;5.60;;;;;;;40.33;25.46;99122.72;5092122;28;20391;-43
2023/08/03 07:32:08;;;;;;;6.90;6.22;;;;;;;40.56;25.19;99119.19;5092135;28;20055;-45
2023/08/03 07:34:33;;;;;;;6.82;6.22;;;;;;;40.61;25.58;99125.09;5092247;28;20028;-45
2023/08/03 07:36:59;;;;;;;7.40;5.93;;;;;;;40.37;26.06;99126.25;5091997;28;20157;-44
2023/08/03 07:39:25;;;;;;;8.07;5.90;;;;;;;40.22;25.78;99118.06;5091990;28;20109;-45
2023/08/03 07:41:51;;;;;;;6.40;5.80;;;;;;;40.19;25.54;99120.91;5091784;28;20068;-46
2023/08/03 07:44:17;;;;;;;8.23;5.88;;;;;;;40.49;25.29;99119.31;5091634;28;20030;-45
2023/08/03 07:46:43;;;;;;;7.00;6.18;;;;;;;40.65;25.25;99120.22;5091972;28;20348;-44
2023/08/03 07:49:09;;;;;;;6.82;6.13;;;;;;;40.97;25.15;99118.13;5091968;28;20020;-48
2023/08/03 07:51:34;;;;;;;8.05;5.95;;;;;;;41.04;25.02;99126.38;5091824;28;20031;-43
2023/08/03 07:53:59;;;;;;;8.40;5.85;;;;;;;40.97;24.75;99115.34;5091683;28;20028;-49
2023/08/03 07:56:25;;;;;;;6.63;5.93;;;;;;;40.81;25.00;99119.59;5092024;28;20107;-45
2023/08/03 07:58:51;;;;;;;6.95;6.10;;;;;;;40.92;25.37;99118.59;5091390;28;20043;-46
2023/08/03 08:01:17;;;;;;;9.05;6.70;;;;;;;41.17;25.11;99121.75;5073325;28;20032;-44
2023/08/03 08:03:43;;;;;;;7.78;6.30;;;;;;;41.59;24.40;99116.59;5091633;28;20358;-46
2023/08/03 08:06:19;;;;;;;8.73;6.60;;;;;;;40.68;25.70;99113.00;5091917;28;20024;-47
2023/08/03 08:08:46;;;;;;;8.73;6.63;;;;;;;40.12;26.20;99113.44;5091225;28;20020;-44
2023/08/03 08:11:14;;;;;;;7.18;6.47;;;;;;;39.49;27.22;99111.03;5090928;28;20024;-45
2023/08/03 08:13:40;;;;;;;8.25;7.20;;;;;;;39.09;27.48;99116.19;5091243;28;20399;-44
2023/08/03 08:16:09;;;;;;;8.25;7.40;;;;;;;38.72;27.56;99112.91;5091157;28;20024;-44
2023/08/03 08:18:35;;;;;;;7.90;7.00;;;;;;;38.71;28.67;99107.78;5091508;28;20016;-45
2023/08/03 08:21:03;;;;;;;7.70;6.82;;;;;;;39.94;26.70;99108.09;5091370;28;20401;-46
2023/08/03 08:23:29;;;;;;;7.80;6.97;;;;;;;40.05;26.65;99103.19;5091358;28;20052;-46
2023/08/03 08:25:55;;;;;;;8.98;6.93;;;;;;;39.63;26.92;99096.94;5090691;28;20034;-44
2023/08/03 08:28:20;;;;;;;8.80;7.03;;;;;;;39.06;27.80;99103.91;5091145;28;20466;-46
2023/08/03 08:30:46;;;;;;;8.93;7.00;;;;;;;39.64;27.23;99106.06;5090934;28;20024;-45
2023/08/03 08:33:14;;;;;;;8.50;7.57;;;;;;;40.07;26.86;99097.19;5090974;28;20026;-44
2023/08/03 08:35:40;;;;;;;10.43;7.10;;;;;;;40.23;26.52;99099.34;5090703;28;20030;-44
2023/08/03 08:38:05;;;;;;;9.80;6.95;;;;;;;40.61;26.12;99097.22;5090735;28;20032;-47
2023/08/03 08:40:35;;;;;;;9.48;6.95;;;;;;;41.09;25.87;99098.00;5090629;28;20407;-44
2023/08/03 08:43:01;;;;;;;8.40;7.60;;;;;;;40.76;25.55;99081.03;5090783;28;20031;-45
2023/08/03 08:45:27;;;;;;;8.43;7.57;;;;;;;40.44;26.07;99084.31;5091099;28;20062;-46
2023/08/03 08:47:52;;;;;;;8.27;7.47;;;;;;;40.77;26.29;99088.19;5091010;28;20541;-45
2023/08/03 08:50:18;;;;;;;11.07;7.50;;;;;;;40.12;26.56;99090.34;5090984;28;20028;-44
2023/08/03 08:52:44;;;;;;;8.57;7.68;;;;;;;39.07;28.19;99099.13;5091015;28;20536;-45
2023/08/03 08:55:15;;;;;;;8.73;7.88;;;;;;;38.85;28.68;99087.38;5090689;28;20020;-46
2023/08/03 08:57:40;;;;;;;8.02;7.22;;;;;;;39.35;28.44;99086.13;5090968;28;20016;-44
2023/08/03 09:00:07;;;;;;;9.90;7.93;;;;;;;39.56;28.42;99090.69;5090415;28;20449;-45
2023/08/03 09:02:33;;;;;;;8.25;7.45;;;;;;;39.06;29.52;99097.56;5090768;28;20031;-45
2023/08/03 09:05:14;;;;;;;10.23;7.20;;;;;;;38.17;30.33;99087.88;5090420;28;20020;-45
2023/08/03 09:07:40;;;;;;;10.68;7.63;;;;;;;37.61;31.98;99079.41;5090188;28;20034;-45
2023/08/03 09:10:06;;;;;;;8.70;6.90;;;;;;;38.10;31.14;99070.06;5090209;28;20020;-44
2023/08/03 09:12:32;;;;;;;9.15;7.43;;;;;;;38.33;30.29;99068.72;5090277;28;20034;-46
2023/08/03 09:14:58;;;;;;;8.77;7.10;;;;;;;38.16;30.87;99070.44;5090189;28;20395;-47
2023/08/03 09:17:24;;;;;;;10.20;7.40;;;;;;;37.90;31.36;99068.97;5089759;28;20051;-46
2023/08/03 09:19:51;;;;;;;7.88;7.10;;;;;;;38.30;30.73;99064.75;5090060;28;20095;-43
2023/08/03 09:22:18;;;;;;;8.20;7.40;;;;;;;38.53;31.33;99067.00;5089397;28;20119;-45
2023/08/03 09:24:46;;;;;;;8.30;7.15;;;;;;;38.72;30.58;99065.66;5090074;28;20432;-45
2023/08/03 09:27:16;;;;;;;9.38;7.40;;;;;;;38.56;31.41;99067.38;5090258;28;20024;-44
2023/08/03 09:29:42;;;;;;;10.55;7.20;;;;;;;37.51;32.26;99067.16;5090224;28;20020;-44
2023/08/03 09:32:08;;;;;;;8.65;6.90;;;;;;;37.53;33.06;99067.53;5089885;28;20482;-46
2023/08/03 09:34:38;;;;;;;9.18;7.20;;;;;;;37.48;33.14;99056.84;5089893;28;20047;-46
2023/08/03 09:37:06;;;;;;;8.63;7.20;;;;;;;38.28;32.17;99049.72;5089995;28;20083;-46
2023/08/03 09:39:36;;;;;;;8.75;7.03;;;;;;;37.89;32.71;99059.03;5089693;28;20515;-46
2023/08/03 09:42:05;;;;;;;9.70;7.30;;;;;;;37.90;32.44;99057.84;5090123;28;20024;-47
2023/08/03 09:44:36;;;;;;;7.90;7.07;;;;;;;37.83;32.90;99047.56;5089642;28;20027;-47
2023/08/03 09:47:03;;;;;;;7.60;6.90;;;;;;;37.92;32.03;99039.59;5089572;28;20024;-43
2023/08/03 09:49:30;;;;;;;8.23;6.80;;;;;;;37.94;32.21;99053.06;5089910;28;20129;-47
2023/08/03 09:51:57;;;;;;;8.00;7.22;;;;;;;37.31;33.31;99039.84;5089982;28;20480;-46
2023/08/03 09:54:25;;;;;;;8.05;7.28;;;;;;;37.44;33.17;99042.19;5089897;28;20028;-47
2023/08/03 09:56:53;;;;;;;10.35;7.50;;;;;;;37.35;33.16;99032.28;5090177;28;20261;-45
2023/08/03 09:59:25;;;;;;;7.80;7.00;;;;;;;37.54;32.31;99039.34;5090205;28;20066;-49
2023/08/03 10:01:55;;;;;;;7.80;7.03;;;;;;;37.48;32.58;99034.63;5089606;28;20107;-44
2023/08/03 10:04:24;;;;;;;9.70;7.80;;;;;;;37.35;32.58;99029.53;5090120;28;20556;-44
2023/08/03 10:06:54;;;;;;;7.45;6.75;;;;;;;37.42;32.43;99025.16;5089776;28;20518;-44
2023/08/03 10:09:24;;;;;;;7.85;7.15;;;;;;;37.21;32.40;99009.41;5089793;28;20377;-46
2023/08/03 10:11:54;;;;;;;8.98;8.07;;;;;;;37.21;32.39;99021.28;5089967;28;20067;-49
2023/08/03 10:14:26;;;;;;;8.30;7.43;;;;;;;37.30;32.56;99021.63;5089727;28;20081;-46
2023/08/03 10:16:52;;;;;;;8.15;7.35;;;;;;;37.48;32.53;99009.66;5089906;28;20020;-47
2023/08/03 10:19:19;;;;;;;8.98;7.55;;;;;;;37.83;32.71;99002.38;5089546;28;20107;-48
2023/08/03 10:21:44;;;;;;;8.25;7.45;;;;;;;38.10;32.17;99006.19;5089634;28;20399;-45
2023/08/03 10:24:14;;;;;;;9.35;7.72;;;;;;;38.11;32.02;99009.75;5089729;28;20104;-47
2023/08/03 10:26:41;;;;;;;9.43;8.00;;;;;;;37.50;32.98;99005.28;5088881;28;20024;-46
2023/08/03 10:29:07;;;;;;;10.35;7.80;;;;;;;37.57;32.62;99001.72;5089136;28;20024;-45
2023/08/03 10:31:34;;;;;;;8.45;7.65;;;;;;;37.68;32.18;98994.16;5090332;28;20521;-44
2023/08/03 10:33:59;;;;;;;9.40;8.40;;;;;;;37.97;32.20;99001.47;5093278;28;20020;-43
2023/08/03 10:36:27;;;;;;;9.82;7.80;;;;;;;38.05;31.83;98991.94;5092991;28;20496;-46
2023/08/03 10:39:05;;;;;;;11.38;8.05;;;;;;;37.81;33.02;98988.91;5094028;28;20028;-43
2023/08/03 10:41:36;;;;;;;8.50;7.65;;;;;;;37.66;32.66;98982.66;5093064;28;20024;-47
2023/08/03 10:44:04;;;;;;;8.43;7.60;;;;;;;37.49;32.78;98969.63;5093438;28;20085;-45
2023/08/03 10:46:43;;;;;;;8.88;7.97;;;;;;;37.76;32.66;98975.47;5092847;28;20028;-45
2023/08/03 10:49:18;;;;;;;;;;;;;;;38.42;31.85;98971.00;5093321;28;20487;-47
2023/08/03 10:52:15;;;;;;;8.50;7.68;;;;;;;38.31;31.50;98979.47;5093100;28;19914;-44
2023/08/03 10:54:40;;;;;;;9.25;8.30;;;;;;;37.55;32.85;98976.34;5093232;28;20061;-44
2023/08/03 10:57:11;;;;;;;9.32;8.43;;;;;;;37.34;33.00;98969.72;5092917;28;20012;-45
2023/08/03 10:59:45;;;;;;;9.88;8.88;;;;;;;37.62;32.72;98968.00;5093165;28;20537;-45
2023/08/03 11:02:21;;;;;;;11.25;9.88;;;;;;;37.90;32.28;98969.03;5092993;28;20047;-45
2023/08/03 11:04:50;;;;;;;13.75;11.25;;;;;;;37.81;32.41;98960.34;5093072;28;20495;-45
2023/08/03 11:07:22;;;;;;;14.93;13.27;;;;;;;38.57;32.03;98952.25;5093223;28;20027;-45
2023/08/03 11:09:48;;;;;;;15.25;13.18;;;;;;;38.28;31.75;98956.06;5093051;28;20020;-46
2023/08/03 11:12:16;;;;;;;17.58;15.18;;;;;;;38.28;31.46;98946.94;5092993;28;20495;-44
2023/08/03 11:14:43;;;;;;;17.85;14.52;;;;;;;38.89;30.83;98933.22;5092045;28;20035;-44
2023/08/03 11:17:09;;;;;;;16.67;14.52;;;;;;;39.18;30.35;98935.69;5092995;28;20031;-45
2023/08/03 11:19:38;;;;;;;16.83;14.60;;;;;;;39.19;30.30;98944.84;5092991;28;20035;-44
2023/08/03 11:22:05;;;;;;;15.77;13.95;;;;;;;39.36;29.51;98931.91;5092646;28;20046;-44
2023/08/03 11:24:31;;;;;;;17.30;14.45;;;;;;;39.64;29.60;98925.97;5092626;28;20020;-46
2023/08/03 11:26:58;;;;;;;16.88;14.05;;;;;;;39.38;29.91;98921.16;5092382;28;20024;-44